createdAt,value
2018-06-09T00:00:22.203Z,15.70
2018-06-09T00:02:50.812Z,13.03
2018-06-09T00:05:19.367Z,9.93
2018-06-09T00:07:47.979Z,12.63
2018-06-09T00:10:16.575Z,19.37
2018-06-09T00:12:45.239Z,18.70
2018-06-09T00:15:13.798Z,12.43
2018-06-09T00:17:42.391Z,11.83
2018-06-09T00:20:10.967Z,15.43
2018-06-09T00:22:39.222Z,13.23
2018-06-09T00:25:07.786Z,22.43
2018-06-09T00:27:36.370Z,17.03
2018-06-09T00:30:05.051Z,12.57
2018-06-09T00:32:33.634Z,16.73
2018-06-09T00:35:02.191Z,14.07
2018-06-09T00:37:30.796Z,14.13
2018-06-09T00:39:59.385Z,14.70
2018-06-09T00:42:27.994Z,17.20
2018-06-09T00:44:56.595Z,16.63
2018-06-09T00:47:25.191Z,18.27
2018-06-09T00:49:53.758Z,14.00
2018-06-09T00:52:22.352Z,18.53
2018-06-09T00:54:50.582Z,12.77
2018-06-09T00:57:19.185Z,19.40
2018-06-09T00:59:47.760Z,18.67
2018-06-09T01:02:16.366Z,19.00
2018-06-09T01:04:45.003Z,17.50
2018-06-09T01:07:13.571Z,17.20
2018-06-09T01:09:42.150Z,18.20
2018-06-09T01:12:10.774Z,14.63
2018-06-09T01:14:39.365Z,20.87
2018-06-09T01:17:07.976Z,17.00
2018-06-09T01:19:36.254Z,17.73
2018-06-09T01:22:04.937Z,17.10
2018-06-09T01:24:33.517Z,19.13
2018-06-09T01:27:02.092Z,13.00
2018-06-09T01:29:30.352Z,13.80
2018-06-09T01:31:58.911Z,16.43
2018-06-09T01:34:27.506Z,20.30
2018-06-09T01:36:56.061Z,15.80
2018-06-09T01:39:24.673Z,13.33
2018-06-09T01:41:53.244Z,11.70
2018-06-09T01:44:21.894Z,14.43
2018-06-09T01:46:50.459Z,12.53
2018-06-09T01:49:19.058Z,30.30
2018-06-09T01:51:47.613Z,12.47
2018-06-09T01:54:16.233Z,13.23
2018-06-09T01:56:44.802Z,16.23
2018-06-09T01:59:13.378Z,15.60
2018-06-09T02:01:41.930Z,24.43
2018-06-09T02:04:10.542Z,17.63
2018-06-09T02:06:39.123Z,22.37
2018-06-09T02:09:09.226Z,22.17
2018-06-09T02:11:37.823Z,17.33
2018-06-09T02:14:06.158Z,21.10
2018-06-09T02:16:34.724Z,13.57
2018-06-09T02:19:03.319Z,20.23
2018-06-09T02:21:31.932Z,18.13
2018-06-09T02:24:00.533Z,15.27
2018-06-09T02:26:29.099Z,16.03
2018-06-09T02:28:57.710Z,14.27
2018-06-09T02:31:26.299Z,24.50
2018-06-09T02:33:54.895Z,19.27
2018-06-09T02:36:23.443Z,14.67
2018-06-09T02:38:52.025Z,18.73
2018-06-09T02:41:20.575Z,17.43
2018-06-09T02:43:49.162Z,16.23
2018-06-09T02:46:17.736Z,19.53
2018-06-09T02:48:46.378Z,26.10
2018-06-09T02:51:14.933Z,16.13
2018-06-09T02:53:43.491Z,15.47
2018-06-09T02:56:12.094Z,21.67
2018-06-09T02:58:40.653Z,16.40
2018-06-09T03:01:09.325Z,21.87
2018-06-09T03:03:37.890Z,26.53
2018-06-09T03:06:06.512Z,14.50
2018-06-09T03:08:35.063Z,12.23
2018-06-09T03:11:03.657Z,13.93
2018-06-09T03:13:32.245Z,18.70
2018-06-09T03:16:00.886Z,17.60
2018-06-09T03:18:29.443Z,13.83
2018-06-09T03:20:58.043Z,15.90
2018-06-09T03:23:26.604Z,18.63
2018-06-09T03:25:55.188Z,16.53
2018-06-09T03:28:23.772Z,19.80
2018-06-09T03:30:52.370Z,16.93
2018-06-09T03:33:20.947Z,17.60
2018-06-09T03:35:49.539Z,15.73
2018-06-09T03:38:18.091Z,21.70
2018-06-09T03:40:46.693Z,15.70
2018-06-09T03:43:15.334Z,12.40
2018-06-09T03:45:43.919Z,15.97
2018-06-09T03:48:12.503Z,14.40
2018-06-09T03:50:41.123Z,27.73
2018-06-09T03:53:09.717Z,26.10
2018-06-09T03:55:38.291Z,19.87
2018-06-09T03:58:06.950Z,13.27
2018-06-09T04:00:35.614Z,22.73
2018-06-09T04:03:04.211Z,14.90
2018-06-09T04:05:32.843Z,17.33
2018-06-09T04:08:01.395Z,17.83
2018-06-09T04:10:29.987Z,25.03
2018-06-09T04:12:58.574Z,17.00
2018-06-09T04:15:27.159Z,14.27
2018-06-09T04:17:55.715Z,30.07
2018-06-09T04:20:24.343Z,17.40
2018-06-09T04:22:52.914Z,13.07
2018-06-09T04:25:21.503Z,13.43
2018-06-09T04:27:50.086Z,15.37
2018-06-09T04:30:18.649Z,17.23
2018-06-09T04:32:47.271Z,23.97
2018-06-09T04:35:15.828Z,13.50
2018-06-09T04:37:44.419Z,18.70
2018-06-09T04:40:12.970Z,15.03
2018-06-09T04:42:41.545Z,14.40
2018-06-09T04:45:10.101Z,12.90
2018-06-09T04:47:38.719Z,16.63
2018-06-09T04:50:07.308Z,16.40
2018-06-09T04:52:35.898Z,13.40
2018-06-09T04:55:04.481Z,19.23
2018-06-09T04:57:33.194Z,15.80
2018-06-09T05:00:01.763Z,16.43
2018-06-09T05:02:30.362Z,16.47
2018-06-09T05:04:58.909Z,14.03
2018-06-09T05:07:27.498Z,12.80
2018-06-09T05:09:56.067Z,17.43
2018-06-09T05:12:24.704Z,15.13
2018-06-09T05:14:53.262Z,18.13
2018-06-09T05:17:21.858Z,12.33
2018-06-09T05:19:50.429Z,12.10
2018-06-09T05:22:19.042Z,14.70
2018-06-09T05:24:47.596Z,12.87
2018-06-09T05:27:15.850Z,13.97
2018-06-09T05:29:44.407Z,11.20
2018-06-09T05:32:12.982Z,15.03
2018-06-09T05:34:41.547Z,18.00
2018-06-09T05:37:10.163Z,13.73
2018-06-09T05:39:38.721Z,14.30
2018-06-09T05:42:07.336Z,10.80
2018-06-09T05:44:35.900Z,25.70
2018-06-09T05:47:04.611Z,11.47
2018-06-09T05:49:33.205Z,13.10
2018-06-09T05:52:01.434Z,15.33
2018-06-09T05:54:30.024Z,16.63
2018-06-09T05:56:58.602Z,10.80
2018-06-09T05:59:27.223Z,12.30
2018-06-09T06:01:55.810Z,13.13
2018-06-09T06:04:24.419Z,11.13
2018-06-09T06:06:52.987Z,15.63
2018-06-09T06:09:21.575Z,12.40
2018-06-09T06:11:49.793Z,11.60
2018-06-09T06:14:18.386Z,8.23
2018-06-09T06:16:46.983Z,8.33
2018-06-09T06:19:15.550Z,9.53
2018-06-09T06:21:44.213Z,10.00
2018-06-09T06:24:12.781Z,7.63
2018-06-09T06:26:41.358Z,7.03
2018-06-09T06:29:09.937Z,8.13
2018-06-09T06:31:38.516Z,7.40
2018-06-09T06:34:07.090Z,8.03
2018-06-09T06:36:35.654Z,8.03
2018-06-09T06:39:06.569Z,9.70
2018-06-09T06:41:35.114Z,13.03
2018-06-09T06:44:03.715Z,8.47
2018-06-09T06:46:32.271Z,7.43
2018-06-09T06:49:00.934Z,6.70
2018-06-09T06:51:29.502Z,10.93
2018-06-09T06:53:58.103Z,6.70
2018-06-09T06:56:26.658Z,13.93
2018-06-09T06:58:55.271Z,6.37
2018-06-09T07:01:23.486Z,7.30
2018-06-09T07:03:52.075Z,6.67
2018-06-09T07:06:20.729Z,6.60
2018-06-09T07:08:49.277Z,8.00
2018-06-09T07:11:17.851Z,10.80
2018-06-09T07:13:46.430Z,6.40
2018-06-09T07:16:15.012Z,10.40
2018-06-09T07:18:43.587Z,8.77
2018-06-09T07:21:12.197Z,5.60
2018-06-09T07:23:40.763Z,8.43
2018-06-09T07:26:09.389Z,7.83
2018-06-09T07:28:37.931Z,11.00
2018-06-09T07:31:06.514Z,7.03
2018-06-09T07:33:35.094Z,11.47
2018-06-09T07:36:03.798Z,6.37
2018-06-09T07:38:32.346Z,6.40
2018-06-09T07:41:00.942Z,7.63
2018-06-09T07:43:29.559Z,7.47
2018-06-09T07:45:58.140Z,8.00
2018-06-09T07:48:26.771Z,6.63
2018-06-09T07:50:55.376Z,6.33
2018-06-09T07:53:24.132Z,6.63
2018-06-09T07:55:52.729Z,8.30
2018-06-09T07:58:21.309Z,6.43
2018-06-09T08:00:49.908Z,10.10
2018-06-09T08:03:18.498Z,7.50
2018-06-09T08:05:47.098Z,8.87
2018-06-09T08:08:15.717Z,10.23
2018-06-09T08:10:44.338Z,5.50
2018-06-09T08:13:12.919Z,5.67
2018-06-09T08:15:41.507Z,5.07
2018-06-09T08:18:09.760Z,10.10
2018-06-09T08:20:38.346Z,5.10
2018-06-09T08:23:06.928Z,4.50
2018-06-09T08:25:35.542Z,5.80
2018-06-09T08:28:04.143Z,7.60
2018-06-09T08:30:32.394Z,5.70
2018-06-09T08:33:00.974Z,7.77
2018-06-09T08:35:29.547Z,6.83
2018-06-09T08:37:58.182Z,4.73
2018-06-09T08:40:26.742Z,6.57
2018-06-09T08:42:55.338Z,6.23
2018-06-09T08:45:23.579Z,6.27
2018-06-09T08:47:52.193Z,5.27
2018-06-09T08:50:20.745Z,6.10
2018-06-09T08:52:49.346Z,5.87
2018-06-09T08:55:17.973Z,7.83
2018-06-09T08:57:46.570Z,5.80
2018-06-09T09:00:15.130Z,6.90
2018-06-09T09:02:43.783Z,5.00
2018-06-09T09:05:12.375Z,7.30
2018-06-09T09:07:40.983Z,10.10
2018-06-09T09:10:09.547Z,6.90
2018-06-09T09:12:38.189Z,6.00
2018-06-09T09:15:06.794Z,5.70
2018-06-09T09:17:35.437Z,7.47
2018-06-09T09:20:04.094Z,6.30
2018-06-09T09:22:32.674Z,6.63
2018-06-09T09:25:01.229Z,5.70
2018-06-09T09:27:29.814Z,6.00
2018-06-09T09:29:58.379Z,5.80
2018-06-09T09:32:26.955Z,8.97
2018-06-09T09:34:55.549Z,5.90
2018-06-09T09:37:24.140Z,7.20
2018-06-09T09:39:52.731Z,7.13
2018-06-09T09:42:21.287Z,6.80
2018-06-09T09:44:50.478Z,7.50
2018-06-09T09:47:19.053Z,7.53
2018-06-09T09:49:48.179Z,7.80
2018-06-09T09:52:16.774Z,7.77
2018-06-09T09:54:45.422Z,7.90
2018-06-09T09:57:14.004Z,8.37
2018-06-09T09:59:42.654Z,9.57
2018-06-09T10:02:11.223Z,12.47
2018-06-09T10:04:39.850Z,9.30
2018-06-09T10:07:08.436Z,9.20
2018-06-09T10:09:37.034Z,7.53
2018-06-09T10:12:06.532Z,7.87
2018-06-09T10:14:35.238Z,7.60
2018-06-09T10:17:04.195Z,8.30
2018-06-09T10:19:32.799Z,8.73
2018-06-09T10:22:01.395Z,7.53
2018-06-09T10:24:29.966Z,7.70
2018-06-09T10:26:58.561Z,10.37
2018-06-09T10:29:27.153Z,7.70
2018-06-09T10:31:55.705Z,8.70
2018-06-09T10:34:24.287Z,8.27
2018-06-09T10:36:52.852Z,8.03
2018-06-09T10:39:21.444Z,10.20
2018-06-09T10:41:50.023Z,10.10
2018-06-09T10:44:18.599Z,8.00
2018-06-09T10:46:47.269Z,11.40
2018-06-09T10:49:15.850Z,9.10
2018-06-09T10:51:44.432Z,7.37
2018-06-09T10:54:13.016Z,9.10
2018-06-09T10:56:41.601Z,9.10
2018-06-09T10:59:10.215Z,6.87
2018-06-09T11:01:38.762Z,8.07
2018-06-09T11:04:07.437Z,8.90
2018-06-09T11:06:36.487Z,10.20
2018-06-09T11:09:07.120Z,9.23
2018-06-09T11:11:35.750Z,8.63
2018-06-09T11:14:04.358Z,8.30
2018-06-09T11:16:32.967Z,7.90
2018-06-09T11:19:01.555Z,7.33
2018-06-09T11:21:30.165Z,9.60
2018-06-09T11:23:58.753Z,9.80
2018-06-09T11:26:27.377Z,9.27
2018-06-09T11:28:55.963Z,8.10
2018-06-09T11:31:25.368Z,8.73
2018-06-09T11:33:53.947Z,8.83
2018-06-09T11:36:22.575Z,10.07
2018-06-09T11:38:51.146Z,9.30
2018-06-09T11:41:19.742Z,11.03
2018-06-09T11:43:48.298Z,11.80
2018-06-09T11:46:16.947Z,8.30
2018-06-09T11:48:47.300Z,9.63
2018-06-09T11:51:15.906Z,12.70
2018-06-09T11:53:44.494Z,9.73
2018-06-09T11:56:13.110Z,11.63
2018-06-09T11:58:41.409Z,11.10
2018-06-09T12:01:10.815Z,9.63
2018-06-09T12:03:39.401Z,9.37
2018-06-09T12:06:08.001Z,10.53
2018-06-09T12:08:36.743Z,11.53
2018-06-09T12:11:05.428Z,10.80
2018-06-09T12:13:34.031Z,10.10
2018-06-09T12:16:02.643Z,9.60
2018-06-09T12:18:31.222Z,11.43
2018-06-09T12:20:59.844Z,12.70
2018-06-09T12:23:28.398Z,14.57
2018-06-09T12:25:56.984Z,11.73
2018-06-09T12:28:25.547Z,9.70
2018-06-09T12:30:54.154Z,10.30
2018-06-09T12:33:22.739Z,10.80
2018-06-09T12:35:51.338Z,11.23
2018-06-09T12:38:19.954Z,9.03
2018-06-09T12:40:48.547Z,10.13
2018-06-09T12:43:17.236Z,12.20
2018-06-09T12:45:45.873Z,10.27
2018-06-09T12:48:14.474Z,10.53
2018-06-09T12:50:43.059Z,11.80
2018-06-09T12:53:11.688Z,12.23
2018-06-09T12:55:40.267Z,10.10
2018-06-09T12:58:08.871Z,12.17
2018-06-09T13:00:37.501Z,10.50
2018-06-09T13:03:06.146Z,10.30
2018-06-09T13:05:34.798Z,13.90
2018-06-09T13:08:03.495Z,11.83
2018-06-09T13:10:32.092Z,10.77
2018-06-09T13:13:00.743Z,10.03
2018-06-09T13:15:29.339Z,10.97
2018-06-09T13:17:57.966Z,18.13
2018-06-09T13:20:26.226Z,12.07
2018-06-09T13:22:54.824Z,15.93
2018-06-09T13:25:23.542Z,14.33
2018-06-09T13:27:52.143Z,11.50
2018-06-09T13:30:20.810Z,11.00
2018-06-09T13:32:49.395Z,10.73
2018-06-09T13:35:18.047Z,10.90
2018-06-09T13:37:46.696Z,12.87
2018-06-09T13:40:15.271Z,13.03
2018-06-09T13:42:43.888Z,11.37
2018-06-09T13:45:12.532Z,12.50
2018-06-09T13:47:41.135Z,11.27
2018-06-09T13:50:09.711Z,10.80
2018-06-09T13:52:38.292Z,11.37
2018-06-09T13:55:06.882Z,14.23
2018-06-09T13:57:35.474Z,33.10
2018-06-09T14:00:04.186Z,19.87
2018-06-09T14:02:32.797Z,22.90
2018-06-09T14:05:01.362Z,12.30
2018-06-09T14:07:29.994Z,14.70
2018-06-09T14:09:58.586Z,22.70
2018-06-09T14:12:27.242Z,13.47
2018-06-09T14:14:55.971Z,12.73
2018-06-09T14:17:25.026Z,11.27
2018-06-09T14:19:54.158Z,12.50
2018-06-09T14:22:23.149Z,22.80
2018-06-09T14:24:51.804Z,13.43
2018-06-09T14:27:20.379Z,11.07
2018-06-09T14:29:48.985Z,10.87
2018-06-09T14:32:17.539Z,14.37
2018-06-09T14:34:46.241Z,11.87
2018-06-09T14:37:14.818Z,10.63
2018-06-09T14:39:43.423Z,14.00
2018-06-09T14:42:12.011Z,13.70
2018-06-09T14:44:40.618Z,12.20
2018-06-09T14:47:09.169Z,11.23
2018-06-09T14:49:37.750Z,14.20
2018-06-09T14:52:06.423Z,13.67
2018-06-09T14:54:35.019Z,15.93
2018-06-09T14:57:03.610Z,16.23
2018-06-09T14:59:32.574Z,14.13
2018-06-09T15:02:01.564Z,13.67
2018-06-09T15:04:30.147Z,14.80
2018-06-09T15:06:59.175Z,12.27
2018-06-09T15:09:27.840Z,12.43
2018-06-09T15:11:56.408Z,15.20
2018-06-09T15:14:25.092Z,13.60
2018-06-09T15:16:53.879Z,18.47
2018-06-09T15:19:22.495Z,19.43
2018-06-09T15:21:51.386Z,10.47
2018-06-09T15:24:20.022Z,17.13
2018-06-09T15:26:48.587Z,11.60
2018-06-09T15:29:16.858Z,12.70
2018-06-09T15:31:45.410Z,14.70
2018-06-09T15:34:13.998Z,10.80
2018-06-09T15:36:42.557Z,18.53
2018-06-09T15:39:11.175Z,13.50
2018-06-09T15:41:39.816Z,9.67
2018-06-09T15:44:08.400Z,9.73
2018-06-09T15:46:37.008Z,7.17
2018-06-09T15:49:05.586Z,8.67
2018-06-09T15:51:34.240Z,9.33
2018-06-09T15:54:02.976Z,13.30
2018-06-09T15:56:31.557Z,13.60
2018-06-09T15:59:00.231Z,5.73
2018-06-09T16:01:28.852Z,13.00
2018-06-09T16:03:57.415Z,10.60
2018-06-09T16:06:25.993Z,17.73
2018-06-09T16:08:54.601Z,16.77
2018-06-09T16:11:23.185Z,32.77
2018-06-09T16:13:51.461Z,22.00
2018-06-09T16:16:20.062Z,19.00
2018-06-09T16:18:48.623Z,8.90
2018-06-09T16:21:17.256Z,10.30
2018-06-09T16:23:45.879Z,10.53
2018-06-09T16:26:14.479Z,14.43
2018-06-09T16:28:43.067Z,10.67
2018-06-09T16:31:11.674Z,8.50
2018-06-09T16:33:40.262Z,12.97
2018-06-09T16:36:08.855Z,14.20
2018-06-09T16:38:37.439Z,8.70
2018-06-09T16:41:06.167Z,12.00
2018-06-09T16:43:34.744Z,11.43
2018-06-09T16:46:03.380Z,16.40
2018-06-09T16:48:31.956Z,9.30
2018-06-09T16:51:00.566Z,8.50
2018-06-09T16:53:29.518Z,14.10
2018-06-09T16:55:58.152Z,17.90
2018-06-09T16:58:26.818Z,7.20
2018-06-09T17:00:55.481Z,10.27
2018-06-09T17:03:24.087Z,8.90
2018-06-09T17:05:52.759Z,14.70
2018-06-09T17:08:21.491Z,14.93
2018-06-09T17:10:50.131Z,14.93
2018-06-09T17:13:18.774Z,13.47
2018-06-09T17:15:47.410Z,16.77
2018-06-09T17:18:16.037Z,21.67
2018-06-09T17:20:44.631Z,20.83
2018-06-09T17:23:13.236Z,8.27
2018-06-09T17:25:41.789Z,7.00
2018-06-09T17:28:10.371Z,13.73
2018-06-09T17:30:38.946Z,10.43
2018-06-09T17:33:07.538Z,9.93
2018-06-09T17:35:35.814Z,12.17
2018-06-09T17:38:04.432Z,16.70
2018-06-09T17:40:33.038Z,13.30
2018-06-09T17:43:01.677Z,15.47
2018-06-09T17:45:30.287Z,13.60
2018-06-09T17:47:58.922Z,13.20
2018-06-09T17:50:27.826Z,14.43
2018-06-09T17:52:56.445Z,7.43
2018-06-09T17:55:25.033Z,12.13
2018-06-09T17:57:53.646Z,10.90
2018-06-09T18:00:22.215Z,17.83
2018-06-09T18:02:50.850Z,13.93
2018-06-09T18:05:19.443Z,33.53
2018-06-09T18:07:48.073Z,31.80
2018-06-09T18:10:16.639Z,13.93
2018-06-09T18:12:45.367Z,13.57
2018-06-09T18:15:13.958Z,14.77
2018-06-09T18:17:42.603Z,9.30
2018-06-09T18:20:11.205Z,16.77
2018-06-09T18:22:39.818Z,9.90
2018-06-09T18:25:09.310Z,26.03
2018-06-09T18:27:37.579Z,17.33
2018-06-09T18:30:06.348Z,26.87
2018-06-09T18:32:34.955Z,18.83
2018-06-09T18:35:03.614Z,17.90
2018-06-09T18:37:32.231Z,16.50
2018-06-09T18:40:00.794Z,10.63
2018-06-09T18:42:29.372Z,14.70
2018-06-09T18:44:57.984Z,14.90
2018-06-09T18:47:26.233Z,14.70
2018-06-09T18:49:54.974Z,15.67
2018-06-09T18:52:23.589Z,17.87
2018-06-09T18:54:52.179Z,22.30
2018-06-09T18:57:20.778Z,21.50
2018-06-09T18:59:49.418Z,15.67
2018-06-09T19:02:18.024Z,29.37
2018-06-09T19:04:46.691Z,19.33
2018-06-09T19:07:15.307Z,22.53
2018-06-09T19:09:43.911Z,24.73
2018-06-09T19:12:12.783Z,55.80
2018-06-09T19:14:41.441Z,21.57
2018-06-09T19:17:10.464Z,21.33
2018-06-09T19:19:39.113Z,19.20
2018-06-09T19:22:07.709Z,26.03
2018-06-09T19:24:36.327Z,33.33
2018-06-09T19:27:05.011Z,25.10
2018-06-09T19:29:33.611Z,21.73
2018-06-09T19:32:02.204Z,26.30
2018-06-09T19:34:30.819Z,30.77
2018-06-09T19:36:59.431Z,35.00
2018-06-09T19:39:28.206Z,24.70
2018-06-09T19:41:56.856Z,20.07
2018-06-09T19:44:26.550Z,54.67
2018-06-09T19:46:55.149Z,44.10
2018-06-09T19:49:24.694Z,27.30
2018-06-09T19:51:53.298Z,23.67
2018-06-09T19:54:21.562Z,28.63
2018-06-09T19:56:50.130Z,31.40
2018-06-09T19:59:18.760Z,22.30
2018-06-09T20:01:47.316Z,26.60
2018-06-09T20:04:15.960Z,32.20
2018-06-09T20:06:44.543Z,25.10
2018-06-09T20:09:13.226Z,39.60
2018-06-09T20:11:41.869Z,45.97
2018-06-09T20:14:11.033Z,34.60
2018-06-09T20:16:39.658Z,40.83
2018-06-09T20:19:08.247Z,23.07
2018-06-09T20:21:36.858Z,39.47
2018-06-09T20:24:05.473Z,26.57
2018-06-09T20:26:34.109Z,24.93
2018-06-09T20:29:02.782Z,32.67
2018-06-09T20:31:31.527Z,25.83
2018-06-09T20:34:00.107Z,22.07
2018-06-09T20:36:28.738Z,23.77
2018-06-09T20:38:57.429Z,29.43
2018-06-09T20:41:26.115Z,31.20
2018-06-09T20:43:54.739Z,21.73
2018-06-09T20:46:23.409Z,30.23
2018-06-09T20:48:52.177Z,34.87
2018-06-09T20:51:20.871Z,28.30
2018-06-09T20:53:49.522Z,34.63
2018-06-09T20:56:18.128Z,31.60
2018-06-09T20:58:46.740Z,24.10
2018-06-09T21:01:15.371Z,31.97
2018-06-09T21:03:43.963Z,25.37
2018-06-09T21:06:12.611Z,26.87
2018-06-09T21:08:41.190Z,25.83
2018-06-09T21:11:09.834Z,27.07
2018-06-09T21:13:38.421Z,29.93
2018-06-09T21:16:07.087Z,31.37
2018-06-09T21:18:35.694Z,25.50
2018-06-09T21:21:04.312Z,27.80
2018-06-09T21:23:32.994Z,36.07
2018-06-09T21:26:01.691Z,25.27
2018-06-09T21:28:34.453Z,28.23
2018-06-09T21:31:08.281Z,25.67
2018-06-09T21:33:53.248Z,25.93
2018-06-09T21:36:27.877Z,26.13
2018-06-09T21:39:04.743Z,25.33
2018-06-09T21:41:38.562Z,33.77
2018-06-09T21:44:12.532Z,26.63
2018-06-09T21:46:47.520Z,27.13
2018-06-09T21:49:17.252Z,24.77
2018-06-09T21:51:45.873Z,32.83
2018-06-09T21:54:14.486Z,28.13
2018-06-09T21:56:43.085Z,28.33
2018-06-09T21:59:11.667Z,28.43
2018-06-09T22:01:40.248Z,31.53
2018-06-09T22:04:08.843Z,26.77
2018-06-09T22:06:37.477Z,22.40
2018-06-09T22:09:06.411Z,28.10
2018-06-09T22:11:34.993Z,21.93
2018-06-09T22:14:03.652Z,26.13
2018-06-09T22:16:32.211Z,26.47
2018-06-09T22:19:00.822Z,25.23
2018-06-09T22:21:29.422Z,20.80
2018-06-09T22:23:57.997Z,24.70
2018-06-09T22:26:26.611Z,24.80
2018-06-09T22:28:55.240Z,26.20
2018-06-09T22:31:23.829Z,22.13
2018-06-09T22:33:52.098Z,27.30
2018-06-09T22:36:20.695Z,21.83
2018-06-09T22:38:49.360Z,24.33
2018-06-09T22:41:17.937Z,26.90
2018-06-09T22:43:46.566Z,24.67
2018-06-09T22:46:15.176Z,28.67
2018-06-09T22:48:43.779Z,25.70
2018-06-09T22:51:12.393Z,27.30
2018-06-09T22:53:41.025Z,22.70
2018-06-09T22:56:09.610Z,22.57
2018-06-09T22:58:38.214Z,24.60
2018-06-09T23:01:06.863Z,26.07
2018-06-09T23:03:35.476Z,22.23
2018-06-09T23:06:04.104Z,24.10
2018-06-09T23:08:35.408Z,24.60
2018-06-09T23:11:04.003Z,27.77
2018-06-09T23:13:32.634Z,23.50
2018-06-09T23:16:01.235Z,23.63
2018-06-09T23:18:29.816Z,21.00
2018-06-09T23:20:58.398Z,24.77
2018-06-09T23:23:26.980Z,27.07
2018-06-09T23:25:55.562Z,22.80
2018-06-09T23:28:24.126Z,23.00
2018-06-09T23:30:52.756Z,40.83
2018-06-09T23:33:21.319Z,22.03
2018-06-09T23:35:49.942Z,25.63
2018-06-09T23:38:18.507Z,19.73
2018-06-09T23:40:47.116Z,23.63
2018-06-09T23:43:15.748Z,23.70
2018-06-09T23:45:44.338Z,19.27
2018-06-09T23:48:12.899Z,24.73
2018-06-09T23:50:41.502Z,28.13
2018-06-09T23:53:10.072Z,20.77
2018-06-09T23:55:38.682Z,22.03
2018-06-09T23:58:07.267Z,26.70
